sensor_id;sensor_type;location;lat;lon;timestamp;P1;P2;P0
12542;PMS3003;6337;49.556;25.594;2024-03-02T00:00:51;37.20;17.70;
12542;PMS3003;6337;49.556;25.594;2024-03-02T00:03:28;31.87;17.93;
12542;PMS3003;6337;49.556;25.594;2024-03-02T00:05:57;44.53;19.43;
12542;PMS3003;6337;49.556;25.594;2024-03-02T00:08:26;42.93;20.23;
12542;PMS3003;6337;49.556;25.594;2024-03-02T00:10:57;38.40;19.63;
12542;PMS3003;6337;49.556;25.594;2024-03-02T00:13:25;37.80;21.03;
12542;PMS3003;6337;49.556;25.594;2024-03-02T00:15:53;32.10;17.70;
12542;PMS3003;6337;49.556;25.594;2024-03-02T00:18:24;41.23;19.90;
12542;PMS3003;6337;49.556;25.594;2024-03-02T00:20:57;30.27;18.03;
12542;PMS3003;6337;49.556;25.594;2024-03-02T00:23:35;32.60;19.47;
12542;PMS3003;6337;49.556;25.594;2024-03-02T00:26:04;32.63;17.43;
12542;PMS3003;6337;49.556;25.594;2024-03-02T00:28:35;29.57;17.47;
12542;PMS3003;6337;49.556;25.594;2024-03-02T00:31:04;44.73;19.07;
12542;PMS3003;6337;49.556;25.594;2024-03-02T00:33:38;41.17;21.53;
12542;PMS3003;6337;49.556;25.594;2024-03-02T00:36:12;39.60;17.60;
12542;PMS3003;6337;49.556;25.594;2024-03-02T00:38:44;35.77;17.90;
12542;PMS3003;6337;49.556;25.594;2024-03-02T00:41:16;37.17;20.83;
12542;PMS3003;6337;49.556;25.594;2024-03-02T00:43:47;38.23;17.23;
12542;PMS3003;6337;49.556;25.594;2024-03-02T00:46:27;37.87;19.10;
12542;PMS3003;6337;49.556;25.594;2024-03-02T00:48:58;29.20;18.37;
12542;PMS3003;6337;49.556;25.594;2024-03-02T00:51:30;31.93;17.07;
12542;PMS3003;6337;49.556;25.594;2024-03-02T00:54:00;32.50;16.27;
12542;PMS3003;6337;49.556;25.594;2024-03-02T00:56:29;30.03;16.50;
12542;PMS3003;6337;49.556;25.594;2024-03-02T00:58:56;36.17;16.27;
12542;PMS3003;6337;49.556;25.594;2024-03-02T01:01:24;33.80;16.63;
12542;PMS3003;6337;49.556;25.594;2024-03-02T01:03:52;33.10;16.13;
12542;PMS3003;6337;49.556;25.594;2024-03-02T01:06:20;27.00;17.10;
12542;PMS3003;6337;49.556;25.594;2024-03-02T01:08:50;24.53;16.37;
12542;PMS3003;6337;49.556;25.594;2024-03-02T01:11:23;31.60;16.73;
12542;PMS3003;6337;49.556;25.594;2024-03-02T01:13:51;30.70;16.77;
12542;PMS3003;6337;49.556;25.594;2024-03-02T01:16:18;29.10;14.83;
12542;PMS3003;6337;49.556;25.594;2024-03-02T01:18:46;34.47;16.80;
12542;PMS3003;6337;49.556;25.594;2024-03-02T01:21:14;28.10;17.60;
12542;PMS3003;6337;49.556;25.594;2024-03-02T01:23:43;37.73;19.33;
12542;PMS3003;6337;49.556;25.594;2024-03-02T01:26:17;32.00;16.53;
12542;PMS3003;6337;49.556;25.594;2024-03-02T01:28:44;33.63;17.23;
12542;PMS3003;6337;49.556;25.594;2024-03-02T01:31:12;32.53;15.70;
12542;PMS3003;6337;49.556;25.594;2024-03-02T01:33:39;29.53;17.10;
12542;PMS3003;6337;49.556;25.594;2024-03-02T01:36:08;35.17;17.17;
12542;PMS3003;6337;49.556;25.594;2024-03-02T01:38:35;28.57;15.97;
12542;PMS3003;6337;49.556;25.594;2024-03-02T01:41:02;28.17;13.17;
12542;PMS3003;6337;49.556;25.594;2024-03-02T01:43:31;26.63;17.43;
12542;PMS3003;6337;49.556;25.594;2024-03-02T01:45:58;39.10;17.17;
12542;PMS3003;6337;49.556;25.594;2024-03-02T01:48:26;23.00;14.30;
12542;PMS3003;6337;49.556;25.594;2024-03-02T01:50:53;31.13;15.23;
12542;PMS3003;6337;49.556;25.594;2024-03-02T01:53:20;33.20;15.40;
12542;PMS3003;6337;49.556;25.594;2024-03-02T01:55:48;29.13;15.27;
12542;PMS3003;6337;49.556;25.594;2024-03-02T01:58:16;25.07;14.73;
12542;PMS3003;6337;49.556;25.594;2024-03-02T02:00:45;36.50;14.07;
12542;PMS3003;6337;49.556;25.594;2024-03-02T02:03:15;23.57;15.73;
12542;PMS3003;6337;49.556;25.594;2024-03-02T02:05:46;38.60;14.90;
12542;PMS3003;6337;49.556;25.594;2024-03-02T02:08:13;28.23;15.20;
12542;PMS3003;6337;49.556;25.594;2024-03-02T02:10:41;26.70;15.10;
12542;PMS3003;6337;49.556;25.594;2024-03-02T02:13:09;27.93;15.87;
12542;PMS3003;6337;49.556;25.594;2024-03-02T02:15:36;26.50;13.83;
12542;PMS3003;6337;49.556;25.594;2024-03-02T02:18:07;24.20;13.47;
12542;PMS3003;6337;49.556;25.594;2024-03-02T02:20:34;29.77;15.30;
12542;PMS3003;6337;49.556;25.594;2024-03-02T02:23:03;27.20;15.53;
12542;PMS3003;6337;49.556;25.594;2024-03-02T02:25:33;25.23;14.37;
12542;PMS3003;6337;49.556;25.594;2024-03-02T02:28:01;21.10;13.60;
12542;PMS3003;6337;49.556;25.594;2024-03-02T02:30:30;26.63;15.47;
12542;PMS3003;6337;49.556;25.594;2024-03-02T02:32:58;24.73;15.73;
12542;PMS3003;6337;49.556;25.594;2024-03-02T02:35:26;27.13;15.27;
12542;PMS3003;6337;49.556;25.594;2024-03-02T02:37:57;25.40;15.13;
12542;PMS3003;6337;49.556;25.594;2024-03-02T02:40:27;29.40;14.40;
12542;PMS3003;6337;49.556;25.594;2024-03-02T02:42:56;25.87;14.77;
12542;PMS3003;6337;49.556;25.594;2024-03-02T02:45:24;36.43;14.23;
12542;PMS3003;6337;49.556;25.594;2024-03-02T02:47:51;36.80;15.00;
12542;PMS3003;6337;49.556;25.594;2024-03-02T02:50:19;27.87;13.90;
12542;PMS3003;6337;49.556;25.594;2024-03-02T02:52:51;27.60;14.87;
12542;PMS3003;6337;49.556;25.594;2024-03-02T02:55:21;27.87;15.07;
12542;PMS3003;6337;49.556;25.594;2024-03-02T02:57:54;24.90;14.60;
12542;PMS3003;6337;49.556;25.594;2024-03-02T03:00:21;23.70;14.20;
12542;PMS3003;6337;49.556;25.594;2024-03-02T03:02:49;24.47;14.43;
12542;PMS3003;6337;49.556;25.594;2024-03-02T03:05:17;25.03;14.30;
12542;PMS3003;6337;49.556;25.594;2024-03-02T03:07:45;33.50;15.00;
12542;PMS3003;6337;49.556;25.594;2024-03-02T03:10:15;30.93;16.27;
12542;PMS3003;6337;49.556;25.594;2024-03-02T03:15:35;29.37;15.00;
12542;PMS3003;6337;49.556;25.594;2024-03-02T03:18:03;23.83;14.40;
12542;PMS3003;6337;49.556;25.594;2024-03-02T03:20:30;21.20;13.03;
12542;PMS3003;6337;49.556;25.594;2024-03-02T03:23:00;26.43;14.60;
12542;PMS3003;6337;49.556;25.594;2024-03-02T03:25:40;31.80;15.63;
12542;PMS3003;6337;49.556;25.594;2024-03-02T03:28:14;26.10;14.83;
12542;PMS3003;6337;49.556;25.594;2024-03-02T03:30:40;27.33;14.87;
12542;PMS3003;6337;49.556;25.594;2024-03-02T03:33:08;26.67;14.70;
12542;PMS3003;6337;49.556;25.594;2024-03-02T03:35:41;31.33;16.07;
12542;PMS3003;6337;49.556;25.594;2024-03-02T03:38:10;23.33;12.40;
12542;PMS3003;6337;49.556;25.594;2024-03-02T03:40:37;20.83;13.00;
12542;PMS3003;6337;49.556;25.594;2024-03-02T03:43:06;24.83;13.07;
12542;PMS3003;6337;49.556;25.594;2024-03-02T03:45:38;24.47;14.50;
12542;PMS3003;6337;49.556;25.594;2024-03-02T03:48:05;20.83;12.17;
12542;PMS3003;6337;49.556;25.594;2024-03-02T03:50:33;28.03;16.20;
12542;PMS3003;6337;49.556;25.594;2024-03-02T03:53:02;25.20;14.67;
12542;PMS3003;6337;49.556;25.594;2024-03-02T03:55:31;30.10;14.47;
12542;PMS3003;6337;49.556;25.594;2024-03-02T03:57:59;25.93;15.00;
12542;PMS3003;6337;49.556;25.594;2024-03-02T04:00:27;30.00;14.83;
12542;PMS3003;6337;49.556;25.594;2024-03-02T04:02:57;27.13;14.30;
12542;PMS3003;6337;49.556;25.594;2024-03-02T04:05:25;46.90;15.70;
12542;PMS3003;6337;49.556;25.594;2024-03-02T04:07:52;26.10;13.70;
12542;PMS3003;6337;49.556;25.594;2024-03-02T04:10:20;30.43;15.33;
12542;PMS3003;6337;49.556;25.594;2024-03-02T04:12:52;26.40;14.40;
12542;PMS3003;6337;49.556;25.594;2024-03-02T04:15:20;23.90;13.13;
12542;PMS3003;6337;49.556;25.594;2024-03-02T04:17:48;17.70;12.97;
12542;PMS3003;6337;49.556;25.594;2024-03-02T04:20:18;22.40;13.83;
12542;PMS3003;6337;49.556;25.594;2024-03-02T04:22:47;26.23;13.20;
12542;PMS3003;6337;49.556;25.594;2024-03-02T04:25:15;23.30;14.10;
12542;PMS3003;6337;49.556;25.594;2024-03-02T04:27:44;24.13;13.60;
12542;PMS3003;6337;49.556;25.594;2024-03-02T04:30:13;23.00;13.47;
12542;PMS3003;6337;49.556;25.594;2024-03-02T04:32:40;34.97;12.63;
12542;PMS3003;6337;49.556;25.594;2024-03-02T04:35:11;22.90;12.07;
12542;PMS3003;6337;49.556;25.594;2024-03-02T04:37:45;29.17;15.33;
12542;PMS3003;6337;49.556;25.594;2024-03-02T04:40:13;28.40;13.50;
12542;PMS3003;6337;49.556;25.594;2024-03-02T04:42:40;19.10;13.20;
12542;PMS3003;6337;49.556;25.594;2024-03-02T04:45:12;29.03;13.43;
12542;PMS3003;6337;49.556;25.594;2024-03-02T04:47:43;24.90;13.37;
12542;PMS3003;6337;49.556;25.594;2024-03-02T04:50:10;26.20;14.00;
12542;PMS3003;6337;49.556;25.594;2024-03-02T04:52:38;19.43;13.30;
12542;PMS3003;6337;49.556;25.594;2024-03-02T04:55:16;24.20;13.47;
12542;PMS3003;6337;49.556;25.594;2024-03-02T04:58:02;20.37;12.83;
12542;PMS3003;6337;49.556;25.594;2024-03-02T05:00:30;34.17;13.17;
12542;PMS3003;6337;49.556;25.594;2024-03-02T05:03:02;18.20;12.27;
12542;PMS3003;6337;49.556;25.594;2024-03-02T05:05:30;21.30;12.57;
12542;PMS3003;6337;49.556;25.594;2024-03-02T05:07:58;21.47;13.60;
12542;PMS3003;6337;49.556;25.594;2024-03-02T05:10:28;18.97;13.00;
12542;PMS3003;6337;49.556;25.594;2024-03-02T05:12:55;22.07;12.60;
12542;PMS3003;6337;49.556;25.594;2024-03-02T05:15:23;30.77;13.83;
12542;PMS3003;6337;49.556;25.594;2024-03-02T05:17:51;23.67;13.27;
12542;PMS3003;6337;49.556;25.594;2024-03-02T05:20:21;17.70;14.40;
12542;PMS3003;6337;49.556;25.594;2024-03-02T05:22:49;21.50;13.90;
12542;PMS3003;6337;49.556;25.594;2024-03-02T05:25:18;21.30;13.47;
12542;PMS3003;6337;49.556;25.594;2024-03-02T05:27:49;23.93;12.10;
12542;PMS3003;6337;49.556;25.594;2024-03-02T05:30:17;20.83;12.00;
12542;PMS3003;6337;49.556;25.594;2024-03-02T05:32:45;29.00;13.13;
12542;PMS3003;6337;49.556;25.594;2024-03-02T05:35:15;29.87;13.83;
12542;PMS3003;6337;49.556;25.594;2024-03-02T05:37:42;24.03;12.83;
12542;PMS3003;6337;49.556;25.594;2024-03-02T05:40:21;21.87;13.10;
12542;PMS3003;6337;49.556;25.594;2024-03-02T05:43:03;21.60;12.63;
12542;PMS3003;6337;49.556;25.594;2024-03-02T05:45:32;23.97;12.77;
12542;PMS3003;6337;49.556;25.594;2024-03-02T05:47:59;23.63;12.90;
12542;PMS3003;6337;49.556;25.594;2024-03-02T05:50:27;20.10;11.57;
12542;PMS3003;6337;49.556;25.594;2024-03-02T05:53:01;20.50;12.53;
12542;PMS3003;6337;49.556;25.594;2024-03-02T05:55:28;29.97;13.33;
12542;PMS3003;6337;49.556;25.594;2024-03-02T05:57:57;21.50;14.30;
12542;PMS3003;6337;49.556;25.594;2024-03-02T06:00:47;24.73;11.60;
12542;PMS3003;6337;49.556;25.594;2024-03-02T06:03:16;28.07;11.53;
12542;PMS3003;6337;49.556;25.594;2024-03-02T06:05:43;35.20;18.73;
12542;PMS3003;6337;49.556;25.594;2024-03-02T06:08:11;32.57;16.83;
12542;PMS3003;6337;49.556;25.594;2024-03-02T06:10:39;20.70;12.37;
12542;PMS3003;6337;49.556;25.594;2024-03-02T06:13:06;20.73;15.00;
12542;PMS3003;6337;49.556;25.594;2024-03-02T06:15:33;28.60;15.97;
12542;PMS3003;6337;49.556;25.594;2024-03-02T06:18:03;25.20;15.00;
12542;PMS3003;6337;49.556;25.594;2024-03-02T06:20:33;38.53;22.97;
12542;PMS3003;6337;49.556;25.594;2024-03-02T06:23:00;28.23;16.10;
12542;PMS3003;6337;49.556;25.594;2024-03-02T06:25:30;32.30;17.37;
12542;PMS3003;6337;49.556;25.594;2024-03-02T06:27:57;69.83;34.27;
12542;PMS3003;6337;49.556;25.594;2024-03-02T06:30:24;31.67;15.70;
12542;PMS3003;6337;49.556;25.594;2024-03-02T06:32:55;19.90;12.50;
12542;PMS3003;6337;49.556;25.594;2024-03-02T06:35:27;25.23;14.00;
12542;PMS3003;6337;49.556;25.594;2024-03-02T06:37:56;15.73;10.77;
12542;PMS3003;6337;49.556;25.594;2024-03-02T06:40:26;20.60;12.17;
12542;PMS3003;6337;49.556;25.594;2024-03-02T06:42:57;15.00;10.83;
12542;PMS3003;6337;49.556;25.594;2024-03-02T06:45:26;23.83;12.80;
12542;PMS3003;6337;49.556;25.594;2024-03-02T06:47:55;15.90;10.70;
12542;PMS3003;6337;49.556;25.594;2024-03-02T06:50:23;58.37;18.10;
12542;PMS3003;6337;49.556;25.594;2024-03-02T06:52:52;35.80;16.80;
12542;PMS3003;6337;49.556;25.594;2024-03-02T06:55:22;25.00;14.40;
12542;PMS3003;6337;49.556;25.594;2024-03-02T06:57:51;31.03;16.10;
12542;PMS3003;6337;49.556;25.594;2024-03-02T07:00:19;31.93;11.83;
12542;PMS3003;6337;49.556;25.594;2024-03-02T07:02:47;33.27;14.40;
12542;PMS3003;6337;49.556;25.594;2024-03-02T07:05:15;23.57;12.60;
12542;PMS3003;6337;49.556;25.594;2024-03-02T07:07:42;29.93;11.80;
12542;PMS3003;6337;49.556;25.594;2024-03-02T07:10:11;18.90;10.73;
12542;PMS3003;6337;49.556;25.594;2024-03-02T07:12:38;25.67;12.70;
12542;PMS3003;6337;49.556;25.594;2024-03-02T07:15:06;17.80;10.93;
12542;PMS3003;6337;49.556;25.594;2024-03-02T07:17:54;29.07;14.00;
12542;PMS3003;6337;49.556;25.594;2024-03-02T07:20:23;27.00;13.13;
12542;PMS3003;6337;49.556;25.594;2024-03-02T07:22:50;26.03;14.37;
12542;PMS3003;6337;49.556;25.594;2024-03-02T07:25:20;24.93;12.70;
12542;PMS3003;6337;49.556;25.594;2024-03-02T07:27:50;17.87;11.33;
12542;PMS3003;6337;49.556;25.594;2024-03-02T07:30:23;17.73;10.17;
12542;PMS3003;6337;49.556;25.594;2024-03-02T07:32:50;18.60;10.43;
12542;PMS3003;6337;49.556;25.594;2024-03-02T07:35:20;27.60;18.33;
12542;PMS3003;6337;49.556;25.594;2024-03-02T07:37:56;27.70;11.93;
12542;PMS3003;6337;49.556;25.594;2024-03-02T07:40:27;18.60;10.77;
12542;PMS3003;6337;49.556;25.594;2024-03-02T07:42:55;27.80;13.70;
12542;PMS3003;6337;49.556;25.594;2024-03-02T07:45:23;31.47;14.23;
12542;PMS3003;6337;49.556;25.594;2024-03-02T07:47:51;17.03;10.50;
12542;PMS3003;6337;49.556;25.594;2024-03-02T07:50:22;18.83;10.20;
12542;PMS3003;6337;49.556;25.594;2024-03-02T07:52:52;23.37;11.07;
12542;PMS3003;6337;49.556;25.594;2024-03-02T07:55:19;18.30;10.20;
12542;PMS3003;6337;49.556;25.594;2024-03-02T07:57:51;19.40;11.00;
12542;PMS3003;6337;49.556;25.594;2024-03-02T08:00:18;14.80;9.60;
12542;PMS3003;6337;49.556;25.594;2024-03-02T08:02:45;28.17;11.97;
12542;PMS3003;6337;49.556;25.594;2024-03-02T08:05:16;26.07;12.20;
12542;PMS3003;6337;49.556;25.594;2024-03-02T08:07:44;19.93;10.80;
12542;PMS3003;6337;49.556;25.594;2024-03-02T08:10:12;26.67;12.50;
12542;PMS3003;6337;49.556;25.594;2024-03-02T08:12:40;21.30;11.23;
12542;PMS3003;6337;49.556;25.594;2024-03-02T08:15:10;18.53;10.97;
12542;PMS3003;6337;49.556;25.594;2024-03-02T08:17:40;21.73;12.03;
12542;PMS3003;6337;49.556;25.594;2024-03-02T08:20:13;23.70;12.47;
12542;PMS3003;6337;49.556;25.594;2024-03-02T08:22:41;15.43;11.53;
12542;PMS3003;6337;49.556;25.594;2024-03-02T08:25:12;21.33;11.63;
12542;PMS3003;6337;49.556;25.594;2024-03-02T08:27:41;13.47;10.00;
12542;PMS3003;6337;49.556;25.594;2024-03-02T08:30:12;17.63;10.97;
12542;PMS3003;6337;49.556;25.594;2024-03-02T08:32:39;14.00;10.30;
12542;PMS3003;6337;49.556;25.594;2024-03-02T08:35:07;19.97;11.07;
12542;PMS3003;6337;49.556;25.594;2024-03-02T08:37:36;16.93;11.80;
12542;PMS3003;6337;49.556;25.594;2024-03-02T08:40:14;22.27;10.70;
12542;PMS3003;6337;49.556;25.594;2024-03-02T08:43:06;29.80;11.87;
12542;PMS3003;6337;49.556;25.594;2024-03-02T08:45:49;21.33;11.80;
12542;PMS3003;6337;49.556;25.594;2024-03-02T08:48:32;37.93;17.70;
12542;PMS3003;6337;49.556;25.594;2024-03-02T08:54:29;18.07;9.17;
12542;PMS3003;6337;49.556;25.594;2024-03-02T08:56:59;14.93;10.60;
12542;PMS3003;6337;49.556;25.594;2024-03-02T08:59:36;25.63;11.33;
12542;PMS3003;6337;49.556;25.594;2024-03-02T09:02:13;17.77;11.10;
12542;PMS3003;6337;49.556;25.594;2024-03-02T09:04:45;20.00;10.37;
12542;PMS3003;6337;49.556;25.594;2024-03-02T09:07:20;16.67;11.23;
12542;PMS3003;6337;49.556;25.594;2024-03-02T09:09:48;23.33;13.60;
12542;PMS3003;6337;49.556;25.594;2024-03-02T09:12:18;19.00;10.10;
12542;PMS3003;6337;49.556;25.594;2024-03-02T09:14:50;14.80;10.20;
12542;PMS3003;6337;49.556;25.594;2024-03-02T09:17:29;23.67;12.43;
12542;PMS3003;6337;49.556;25.594;2024-03-02T09:19:58;28.23;12.90;
12542;PMS3003;6337;49.556;25.594;2024-03-02T09:22:27;16.60;10.40;
12542;PMS3003;6337;49.556;25.594;2024-03-02T09:24:57;24.37;12.60;
12542;PMS3003;6337;49.556;25.594;2024-03-02T09:27:25;24.13;13.07;
12542;PMS3003;6337;49.556;25.594;2024-03-02T09:29:53;23.77;13.30;
12542;PMS3003;6337;49.556;25.594;2024-03-02T09:32:21;19.43;13.97;
12542;PMS3003;6337;49.556;25.594;2024-03-02T09:34:56;18.13;11.17;
12542;PMS3003;6337;49.556;25.594;2024-03-02T09:37:23;17.40;10.60;
12542;PMS3003;6337;49.556;25.594;2024-03-02T09:39:52;17.67;9.27;
12542;PMS3003;6337;49.556;25.594;2024-03-02T09:42:21;18.60;9.53;
12542;PMS3003;6337;49.556;25.594;2024-03-02T09:44:49;22.70;10.37;
12542;PMS3003;6337;49.556;25.594;2024-03-02T09:47:16;21.43;10.10;
12542;PMS3003;6337;49.556;25.594;2024-03-02T09:49:46;32.13;12.20;
12542;PMS3003;6337;49.556;25.594;2024-03-02T09:52:18;24.03;10.57;
12542;PMS3003;6337;49.556;25.594;2024-03-02T09:54:47;24.27;12.40;
12542;PMS3003;6337;49.556;25.594;2024-03-02T09:57:15;27.93;15.23;
12542;PMS3003;6337;49.556;25.594;2024-03-02T09:59:43;21.07;12.70;
12542;PMS3003;6337;49.556;25.594;2024-03-02T10:02:14;24.13;14.57;
12542;PMS3003;6337;49.556;25.594;2024-03-02T10:04:48;20.60;11.77;
12542;PMS3003;6337;49.556;25.594;2024-03-02T10:07:17;23.07;13.17;
12542;PMS3003;6337;49.556;25.594;2024-03-02T10:09:46;25.30;15.17;
12542;PMS3003;6337;49.556;25.594;2024-03-02T10:12:28;31.50;14.90;
12542;PMS3003;6337;49.556;25.594;2024-03-02T10:15:02;25.70;14.33;
12542;PMS3003;6337;49.556;25.594;2024-03-02T10:17:34;23.73;12.63;
12542;PMS3003;6337;49.556;25.594;2024-03-02T10:22:54;24.13;15.00;
12542;PMS3003;6337;49.556;25.594;2024-03-02T10:25:28;20.73;11.27;
12542;PMS3003;6337;49.556;25.594;2024-03-02T10:27:58;27.23;13.73;
12542;PMS3003;6337;49.556;25.594;2024-03-02T10:30:41;26.73;12.70;
12542;PMS3003;6337;49.556;25.594;2024-03-02T10:33:08;29.80;13.70;
12542;PMS3003;6337;49.556;25.594;2024-03-02T10:35:38;22.13;13.30;
12542;PMS3003;6337;49.556;25.594;2024-03-02T10:38:07;30.13;12.70;
12542;PMS3003;6337;49.556;25.594;2024-03-02T10:40:35;31.83;14.70;
12542;PMS3003;6337;49.556;25.594;2024-03-02T10:43:07;46.20;17.47;
12542;PMS3003;6337;49.556;25.594;2024-03-02T10:45:36;19.03;11.70;
12542;PMS3003;6337;49.556;25.594;2024-03-02T10:48:05;21.90;12.20;
12542;PMS3003;6337;49.556;25.594;2024-03-02T10:50:34;25.40;13.60;
12542;PMS3003;6337;49.556;25.594;2024-03-02T10:53:04;22.40;11.67;
12542;PMS3003;6337;49.556;25.594;2024-03-02T10:55:32;21.50;11.23;
12542;PMS3003;6337;49.556;25.594;2024-03-02T10:58:00;22.30;12.93;
12542;PMS3003;6337;49.556;25.594;2024-03-02T11:00:30;22.90;11.27;
12542;PMS3003;6337;49.556;25.594;2024-03-02T11:03:02;25.63;12.20;
12542;PMS3003;6337;49.556;25.594;2024-03-02T11:05:36;21.10;13.17;
12542;PMS3003;6337;49.556;25.594;2024-03-02T11:08:11;18.20;10.97;
12542;PMS3003;6337;49.556;25.594;2024-03-02T11:10:41;18.03;9.97;
12542;PMS3003;6337;49.556;25.594;2024-03-02T11:13:14;23.90;11.50;
12542;PMS3003;6337;49.556;25.594;2024-03-02T11:15:43;20.10;9.27;
12542;PMS3003;6337;49.556;25.594;2024-03-02T11:18:12;22.77;11.47;
12542;PMS3003;6337;49.556;25.594;2024-03-02T11:20:43;22.90;11.30;
12542;PMS3003;6337;49.556;25.594;2024-03-02T11:23:17;17.43;12.17;
12542;PMS3003;6337;49.556;25.594;2024-03-02T11:25:45;22.27;12.17;
12542;PMS3003;6337;49.556;25.594;2024-03-02T11:28:12;19.50;11.10;
12542;PMS3003;6337;49.556;25.594;2024-03-02T11:30:49;27.43;12.90;
12542;PMS3003;6337;49.556;25.594;2024-03-02T11:33:28;15.57;11.07;
12542;PMS3003;6337;49.556;25.594;2024-03-02T11:35:56;21.17;11.87;
12542;PMS3003;6337;49.556;25.594;2024-03-02T11:38:31;21.77;11.90;
12542;PMS3003;6337;49.556;25.594;2024-03-02T11:40:59;19.57;10.30;
12542;PMS3003;6337;49.556;25.594;2024-03-02T11:43:28;22.97;10.00;
12542;PMS3003;6337;49.556;25.594;2024-03-02T11:45:57;26.23;8.90;
12542;PMS3003;6337;49.556;25.594;2024-03-02T11:48:30;17.00;10.87;
12542;PMS3003;6337;49.556;25.594;2024-03-02T11:50:59;22.13;11.73;
12542;PMS3003;6337;49.556;25.594;2024-03-02T11:53:39;22.63;11.87;
12542;PMS3003;6337;49.556;25.594;2024-03-02T11:56:09;39.80;12.33;
12542;PMS3003;6337;49.556;25.594;2024-03-02T11:58:47;22.20;12.67;
12542;PMS3003;6337;49.556;25.594;2024-03-02T12:01:16;27.83;12.27;
12542;PMS3003;6337;49.556;25.594;2024-03-02T12:03:46;25.40;12.77;
12542;PMS3003;6337;49.556;25.594;2024-03-02T12:06:15;32.23;13.67;
12542;PMS3003;6337;49.556;25.594;2024-03-02T12:08:45;34.57;15.23;
12542;PMS3003;6337;49.556;25.594;2024-03-02T12:11:17;49.80;20.20;
12542;PMS3003;6337;49.556;25.594;2024-03-02T12:14:04;22.93;12.07;
12542;PMS3003;6337;49.556;25.594;2024-03-02T12:16:32;21.83;11.67;
12542;PMS3003;6337;49.556;25.594;2024-03-02T12:19:02;25.50;13.07;
12542;PMS3003;6337;49.556;25.594;2024-03-02T12:21:30;23.27;13.47;
12542;PMS3003;6337;49.556;25.594;2024-03-02T12:24:06;18.00;9.20;
12542;PMS3003;6337;49.556;25.594;2024-03-02T12:26:34;16.67;9.27;
12542;PMS3003;6337;49.556;25.594;2024-03-02T12:29:02;14.60;7.57;
12542;PMS3003;6337;49.556;25.594;2024-03-02T12:31:29;14.93;8.37;
12542;PMS3003;6337;49.556;25.594;2024-03-02T12:36:51;18.57;9.33;
12542;PMS3003;6337;49.556;25.594;2024-03-02T12:39:20;18.37;8.17;
12542;PMS3003;6337;49.556;25.594;2024-03-02T12:41:49;15.83;8.63;
12542;PMS3003;6337;49.556;25.594;2024-03-02T12:44:16;15.40;7.23;
12542;PMS3003;6337;49.556;25.594;2024-03-02T12:46:44;12.17;8.10;
12542;PMS3003;6337;49.556;25.594;2024-03-02T12:49:11;13.20;7.57;
12542;PMS3003;6337;49.556;25.594;2024-03-02T12:51:40;20.27;8.80;
12542;PMS3003;6337;49.556;25.594;2024-03-02T12:54:08;24.43;8.63;
12542;PMS3003;6337;49.556;25.594;2024-03-02T12:56:40;10.53;6.40;
12542;PMS3003;6337;49.556;25.594;2024-03-02T12:59:17;14.33;7.87;
12542;PMS3003;6337;49.556;25.594;2024-03-02T13:01:50;13.33;8.00;
12542;PMS3003;6337;49.556;25.594;2024-03-02T13:04:22;21.10;8.03;
12542;PMS3003;6337;49.556;25.594;2024-03-02T13:06:50;21.63;9.90;
12542;PMS3003;6337;49.556;25.594;2024-03-02T13:09:18;16.07;7.97;
12542;PMS3003;6337;49.556;25.594;2024-03-02T13:11:48;23.47;8.57;
12542;PMS3003;6337;49.556;25.594;2024-03-02T13:14:15;14.07;10.30;
12542;PMS3003;6337;49.556;25.594;2024-03-02T13:16:45;31.90;8.20;
12542;PMS3003;6337;49.556;25.594;2024-03-02T13:19:14;16.73;9.23;
12542;PMS3003;6337;49.556;25.594;2024-03-02T13:21:44;19.43;11.03;
12542;PMS3003;6337;49.556;25.594;2024-03-02T13:24:16;32.83;10.67;
12542;PMS3003;6337;49.556;25.594;2024-03-02T13:26:48;22.63;10.90;
12542;PMS3003;6337;49.556;25.594;2024-03-02T13:29:20;19.70;10.23;
12542;PMS3003;6337;49.556;25.594;2024-03-02T13:31:49;23.57;13.07;
12542;PMS3003;6337;49.556;25.594;2024-03-02T13:34:18;20.73;12.53;
12542;PMS3003;6337;49.556;25.594;2024-03-02T13:36:46;26.07;14.70;
12542;PMS3003;6337;49.556;25.594;2024-03-02T13:39:18;22.83;13.97;
12542;PMS3003;6337;49.556;25.594;2024-03-02T13:41:54;22.07;11.23;
12542;PMS3003;6337;49.556;25.594;2024-03-02T13:44:29;22.90;12.73;
12542;PMS3003;6337;49.556;25.594;2024-03-02T13:46:57;20.07;10.40;
12542;PMS3003;6337;49.556;25.594;2024-03-02T13:49:29;27.53;11.40;
12542;PMS3003;6337;49.556;25.594;2024-03-02T13:52:01;24.60;12.57;
12542;PMS3003;6337;49.556;25.594;2024-03-02T13:54:39;32.53;15.40;
12542;PMS3003;6337;49.556;25.594;2024-03-02T13:57:09;27.57;12.27;
12542;PMS3003;6337;49.556;25.594;2024-03-02T13:59:37;33.43;11.53;
12542;PMS3003;6337;49.556;25.594;2024-03-02T14:02:05;18.03;11.73;
12542;PMS3003;6337;49.556;25.594;2024-03-02T14:04:35;19.20;12.13;
12542;PMS3003;6337;49.556;25.594;2024-03-02T14:07:05;16.80;10.87;
12542;PMS3003;6337;49.556;25.594;2024-03-02T14:09:33;17.73;12.23;
12542;PMS3003;6337;49.556;25.594;2024-03-02T14:12:02;26.30;11.67;
12542;PMS3003;6337;49.556;25.594;2024-03-02T14:14:32;21.60;12.60;
12542;PMS3003;6337;49.556;25.594;2024-03-02T14:16:59;18.40;10.93;
12542;PMS3003;6337;49.556;25.594;2024-03-02T14:19:29;19.37;11.90;
12542;PMS3003;6337;49.556;25.594;2024-03-02T14:21:57;22.03;12.10;
12542;PMS3003;6337;49.556;25.594;2024-03-02T14:24:24;25.00;12.23;
12542;PMS3003;6337;49.556;25.594;2024-03-02T14:26:54;24.40;12.53;
12542;PMS3003;6337;49.556;25.594;2024-03-02T14:29:23;30.30;12.93;
12542;PMS3003;6337;49.556;25.594;2024-03-02T14:31:56;55.80;20.80;
12542;PMS3003;6337;49.556;25.594;2024-03-02T14:34:24;41.10;19.67;
12542;PMS3003;6337;49.556;25.594;2024-03-02T14:36:52;37.23;17.17;
12542;PMS3003;6337;49.556;25.594;2024-03-02T14:39:20;33.33;16.57;
12542;PMS3003;6337;49.556;25.594;2024-03-02T14:41:50;24.03;14.33;
12542;PMS3003;6337;49.556;25.594;2024-03-02T14:44:23;21.30;13.30;
12542;PMS3003;6337;49.556;25.594;2024-03-02T14:47:07;26.70;14.50;
12542;PMS3003;6337;49.556;25.594;2024-03-02T14:49:34;29.37;13.97;
12542;PMS3003;6337;49.556;25.594;2024-03-02T14:52:05;22.00;12.77;
12542;PMS3003;6337;49.556;25.594;2024-03-02T14:54:34;22.60;13.77;
12542;PMS3003;6337;49.556;25.594;2024-03-02T14:57:03;37.50;17.13;
12542;PMS3003;6337;49.556;25.594;2024-03-02T14:59:31;24.53;13.70;
12542;PMS3003;6337;49.556;25.594;2024-03-02T15:02:02;28.27;14.20;
12542;PMS3003;6337;49.556;25.594;2024-03-02T15:04:31;27.43;16.20;
12542;PMS3003;6337;49.556;25.594;2024-03-02T15:06:58;23.93;13.63;
12542;PMS3003;6337;49.556;25.594;2024-03-02T15:09:28;23.90;13.60;
12542;PMS3003;6337;49.556;25.594;2024-03-02T15:11:55;23.93;14.07;
12542;PMS3003;6337;49.556;25.594;2024-03-02T15:14:24;24.33;13.23;
12542;PMS3003;6337;49.556;25.594;2024-03-02T15:16:52;32.37;15.10;
12542;PMS3003;6337;49.556;25.594;2024-03-02T15:19:24;25.67;15.00;